Map

Track Data

SID SEASON NUMBER BASIN SUBBASIN NAME ISO_TIME NATURE LAT LON WMO_WIND WMO_PRES WMO_AGENCY TRACK_TYPE DIST2LAND LANDFALL IFLAG USA_AGENCY USA_ATCF_ID USA_LAT USA_LON USA_RECORD USA_STATUS USA_WIND USA_PRES USA_SSHS USA_R34_NE USA_R34_SE USA_R34_SW USA_R34_NW USA_R50_NE USA_R50_SE USA_R50_SW USA_R50_NW USA_R64_NE USA_R64_SE USA_R64_SW USA_R64_NW USA_POCI USA_ROCI USA_RMW USA_EYE TOKYO_LAT TOKYO_LON TOKYO_GRADE TOKYO_WIND TOKYO_PRES TOKYO_R50_DIR TOKYO_R50_LONG TOKYO_R50_SHORT TOKYO_R30_DIR TOKYO_R30_LONG TOKYO_R30_SHORT TOKYO_LAND CMA_LAT CMA_LON CMA_CAT CMA_WIND CMA_PRES HKO_LAT HKO_LON HKO_CAT HKO_WIND HKO_PRES NEWDELHI_LAT NEWDELHI_LON NEWDELHI_GRADE NEWDELHI_WIND NEWDELHI_PRES NEWDELHI_CI NEWDELHI_DP NEWDELHI_POCI REUNION_LAT REUNION_LON REUNION_TYPE REUNION_WIND REUNION_PRES REUNION_TNUM REUNION_CI REUNION_RMW REUNION_R34_NE REUNION_R34_SE REUNION_R34_SW REUNION_R34_NW REUNION_R50_NE REUNION_R50_SE REUNION_R50_SW REUNION_R50_NW REUNION_R64_NE REUNION_R64_SE REUNION_R64_SW REUNION_R64_NW BOM_LAT BOM_LON BOM_TYPE BOM_WIND BOM_PRES BOM_TNUM BOM_CI BOM_RMW BOM_R34_NE BOM_R34_SE BOM_R34_SW BOM_R34_NW BOM_R50_NE BOM_R50_SE BOM_R50_SW BOM_R50_NW BOM_R64_NE BOM_R64_SE BOM_R64_SW BOM_R64_NW BOM_ROCI BOM_POCI BOM_EYE BOM_POS_METHOD BOM_PRES_METHOD NADI_LAT NADI_LON NADI_CAT NADI_WIND NADI_PRES WELLINGTON_LAT WELLINGTON_LON WELLINGTON_WIND WELLINGTON_PRES DS824_LAT DS824_LON DS824_STAGE DS824_WIND DS824_PRES TD9636_LAT TD9636_LON TD9636_STAGE TD9636_WIND TD9636_PRES TD9635_LAT TD9635_LON TD9635_WIND TD9635_PRES TD9635_ROCI NEUMANN_LAT NEUMANN_LON NEUMANN_CLASS NEUMANN_WIND NEUMANN_PRES MLC_LAT MLC_LON MLC_CLASS MLC_WIND MLC_PRES USA_GUST BOM_GUST BOM_GUST_PER REUNION_GUST REUNION_GUST_PER USA_SEAHGT USA_SEARAD_NE USA_SEARAD_SE USA_SEARAD_SW USA_SEARAD_NW STORM_SPEED STORM_DIR
1948209N20090 1948 47 NI BB NOT_NAMED 1948-07-26 18:00:00 TS 19.5000 90.4000 main 248 248 O________O____ jtwc_io IO081948 19.5000 90.4000 -1 19.5000 90.4000 TC 1 105
1948209N20090 1948 47 NI BB NOT_NAMED 1948-07-26 21:00:00 TS 19.4900 90.4349 main 248 242 P________P____ IO081948 19.4900 90.4349 -1 19.4900 90.4349 TC 1 0
1948209N20090 1948 47 NI BB NOT_NAMED 1948-07-27 00:00:00 TS 19.6000 90.4000 main 242 212 O________O____ jtwc_io IO081948 19.6000 90.4000 -1 19.6000 90.4000 TC 25 5 336
1948209N20090 1948 47 NI BB NOT_NAMED 1948-07-27 03:00:00 TS 19.9044 90.2400 main 212 168 P________PO___ IO081948 19.9050 90.2450 -1 19.9050 90.2450 TC 25 19.9000 90.2000 1 8 331
1948209N20090 1948 47 NI BB NOT_NAMED 1948-07-27 06:00:00 TS 20.2948 89.9868 main 168 126 O________OP___ jtwc_io IO081948 20.3000 90.0000 -1 20.3000 90.0000 TC 25 20.2741 89.9339 1 9 326
1948209N20090 1948 47 NI BB NOT_NAMED 1948-07-27 09:00:00 TS 20.6441 89.7009 main 126 73 P________PP___ IO081948 20.6425 89.7149 -1 20.6425 89.7149 TC 25 20.6485 89.6637 1 9 322
1948209N20090 1948 47 NI BB NOT_NAMED 1948-07-27 12:00:00 TS 21.0079 89.3956 main 73 22 O________OP___ jtwc_io IO081948 21.0000 89.4000 -1 21.0000 89.4000 TC 25 21.0236 89.3867 1 9 324
1948209N20090 1948 47 NI BB NOT_NAMED 1948-07-27 15:00:00 TS 21.3999 89.1099 main 22 0 P________PO___ IO081948 21.3999 89.1148 -1 21.3999 89.1148 TC 25 21.4000 89.1000 1 10 325
1948209N20090 1948 47 NI BB NOT_NAMED 1948-07-27 18:00:00 TS 21.7921 88.7987 main 0 0 O________OP___ jtwc_io IO081948 21.8000 88.8000 -1 21.8000 88.8000 TC 25 21.7763 88.7961 1 10 321
1948209N20090 1948 47 NI BB NOT_NAMED 1948-07-27 21:00:00 TS 22.1575 88.4411 main 0 0 P________PP___ IO081948 22.1648 88.4373 -1 22.1648 88.4373 TC 25 22.1429 88.4489 1 10 314
1948209N20090 1948 47 NI BB NOT_NAMED 1948-07-28 00:00:00 TS 22.4960 88.0091 main 0 0 O________OP___ jtwc_io IO081948 22.5000 88.0000 -1 22.5000 88.0000 TC 25 22.4882 88.0272 1 11 307
1948209N20090 1948 47 NI BB NOT_NAMED 1948-07-28 03:00:00 TS 22.8147 87.5065 main 0 0 P________PO___ IO081948 22.8221 87.5098 -1 22.8221 87.5098 TC 25 22.8000 87.5000 1 12 300
1948209N20090 1948 47 NI BB NOT_NAMED 1948-07-28 06:00:00 TS 23.0910 86.8883 main 0 0 O________OP___ jtwc_io IO081948 23.1000 86.9000 -1 23.1000 86.9000 TC 25 23.0729 86.8648 1 14 292
1948209N20090 1948 47 NI BB NOT_NAMED 1948-07-28 09:00:00 TS 23.3130 86.1420 main 0 0 P________PP___ IO081948 23.3149 86.1521 -1 23.3149 86.1521 TC 25 23.3092 86.1217 1 15 286
1948209N20090 1948 47 NI BB NOT_NAMED 1948-07-28 12:00:00 TS 23.5053 85.2976 main 0 0 O________OP___ jtwc_io IO081948 23.5000 85.3000 -1 23.5000 85.3000 TC 25 23.5159 85.2927 1 16 284
1948209N20090 1948 47 NI BB NOT_NAMED 1948-07-28 15:00:00 TS 23.7046 84.4199 main 0 0 P________PO___ IO081948 23.7070 84.4299 -1 23.7070 84.4299 TC 25 23.7000 84.4000 1 17 283
1948209N20090 1948 47 NI BB NOT_NAMED 1948-07-28 18:00:00 TS 23.8872 83.4853 main 0 0 O________OP___ jtwc_io IO081948 23.9000 83.5000 -1 23.9000 83.5000 TC 25 23.8679 83.4633 1 18 281
1948209N20090 1948 47 NI BB NOT_NAMED 1948-07-28 21:00:00 TS 24.0447 82.5064 main 0 0 P________PP___ IO081948 24.0614 82.5154 -1 24.0614 82.5154 TC 25 24.0225 82.4944 1 18 279
1948209N20090 1948 47 NI BB NOT_NAMED 1948-07-29 00:00:00 TS 24.1829 81.5016 main 0 0 O________OP___ jtwc_io IO081948 24.2000 81.5000 -1 24.2000 81.5000 TC 25 24.1658 81.5032 1 18 278
1948209N20090 1948 47 NI BB NOT_NAMED 1948-07-29 03:00:00 NR 24.3000 80.5000 main 0 __________O___ IO081948 -1 TC 24.3000 80.5000 1 18 277

About IBTrACS Database

This database is a web-friendly format of International Best Track Archive for Climate Stewardship (IBTrACS), a global best track data archive curated by NOAA dating back to 1842.

Updated: 2021-10-21